sensor_id;sensor_type;location;lat;lon;timestamp;pressure;altitude;pressure_sealevel;temperature;humidity
6132;BME280;3097;42.692;23.278;2023-01-28T00:02:20;94381.41;;;2.41;89.56
6132;BME280;3097;42.692;23.278;2023-01-28T00:04:45;94378.84;;;2.41;88.86
6132;BME280;3097;42.692;23.278;2023-01-28T00:07:10;94377.84;;;2.36;88.48
6132;BME280;3097;42.692;23.278;2023-01-28T00:09:36;94392.19;;;2.22;88.76
6132;BME280;3097;42.692;23.278;2023-01-28T00:12:03;94387.72;;;2.24;87.96
6132;BME280;3097;42.692;23.278;2023-01-28T00:14:29;94397.16;;;2.09;88.63
6132;BME280;3097;42.692;23.278;2023-01-28T00:16:54;94401.44;;;2.08;89.63
6132;BME280;3097;42.692;23.278;2023-01-28T00:19:20;94398.72;;;2.10;89.28
6132;BME280;3097;42.692;23.278;2023-01-28T00:21:45;94404.16;;;2.07;89.49
6132;BME280;3097;42.692;23.278;2023-01-28T00:24:10;94406.16;;;2.11;89.35
6132;BME280;3097;42.692;23.278;2023-01-28T00:26:36;94402.34;;;2.01;89.83
6132;BME280;3097;42.692;23.278;2023-01-28T00:29:02;94405.75;;;2.08;89.66
6132;BME280;3097;42.692;23.278;2023-01-28T00:31:27;94408.13;;;2.09;89.63
6132;BME280;3097;42.692;23.278;2023-01-28T00:33:54;94402.81;;;2.11;89.95
6132;BME280;3097;42.692;23.278;2023-01-28T00:36:21;94414.91;;;2.23;89.88
6132;BME280;3097;42.692;23.278;2023-01-28T00:38:51;94410.94;;;2.21;89.23
6132;BME280;3097;42.692;23.278;2023-01-28T00:41:18;94413.59;;;2.13;88.75
6132;BME280;3097;42.692;23.278;2023-01-28T00:43:46;94418.63;;;2.06;88.91
6132;BME280;3097;42.692;23.278;2023-01-28T00:46:12;94412.22;;;2.10;89.54
6132;BME280;3097;42.692;23.278;2023-01-28T00:48:39;94416.03;;;2.21;89.73
6132;BME280;3097;42.692;23.278;2023-01-28T00:51:05;94422.69;;;2.22;89.78
6132;BME280;3097;42.692;23.278;2023-01-28T00:53:32;94419.81;;;2.25;89.69
6132;BME280;3097;42.692;23.278;2023-01-28T00:55:59;94395.03;;;2.12;89.59
6132;BME280;3097;42.692;23.278;2023-01-28T00:58:25;94424.41;;;2.36;88.79
6132;BME280;3097;42.692;23.278;2023-01-28T01:00:50;94430.44;;;2.35;88.86
6132;BME280;3097;42.692;23.278;2023-01-28T01:03:17;94425.47;;;2.27;89.04
6132;BME280;3097;42.692;23.278;2023-01-28T01:05:42;94421.69;;;2.38;89.26
6132;BME280;3097;42.692;23.278;2023-01-28T01:08:08;94380.69;;;2.05;88.51
6132;BME280;3097;42.692;23.278;2023-01-28T01:10:33;94425.75;;;2.32;88.98
6132;BME280;3097;42.692;23.278;2023-01-28T01:12:59;94424.00;;;2.32;89.05
6132;BME280;3097;42.692;23.278;2023-01-28T01:15:25;94421.44;;;2.32;88.65
6132;BME280;3097;42.692;23.278;2023-01-28T01:17:51;94419.13;;;2.38;88.98
6132;BME280;3097;42.692;23.278;2023-01-28T01:20:22;94426.47;;;2.47;88.80
6132;BME280;3097;42.692;23.278;2023-01-28T01:22:48;94426.81;;;2.44;88.58
6132;BME280;3097;42.692;23.278;2023-01-28T01:25:15;94423.84;;;2.41;88.95
6132;BME280;3097;42.692;23.278;2023-01-28T01:27:42;94421.72;;;2.44;88.67
6132;BME280;3097;42.692;23.278;2023-01-28T01:30:08;94420.72;;;2.39;88.09
6132;BME280;3097;42.692;23.278;2023-01-28T01:32:34;94430.16;;;2.45;88.05
6132;BME280;3097;42.692;23.278;2023-01-28T01:35:01;94426.38;;;2.41;88.31
6132;BME280;3097;42.692;23.278;2023-01-28T01:37:27;94399.63;;;2.23;88.15
6132;BME280;3097;42.692;23.278;2023-01-28T01:39:53;94426.31;;;2.34;87.97
6132;BME280;3097;42.692;23.278;2023-01-28T01:42:18;94435.28;;;2.30;87.85
6132;BME280;3097;42.692;23.278;2023-01-28T01:45:02;94423.00;;;2.12;88.48
6132;BME280;3097;42.692;23.278;2023-01-28T01:47:39;94433.84;;;2.21;89.18
6132;BME280;3097;42.692;23.278;2023-01-28T01:52:45;94433.91;;;2.27;89.73
6132;BME280;3097;42.692;23.278;2023-01-28T01:55:16;94429.19;;;2.24;89.55
6132;BME280;3097;42.692;23.278;2023-01-28T01:57:44;94424.63;;;2.20;89.54
6132;BME280;3097;42.692;23.278;2023-01-28T02:00:12;94436.03;;;2.24;89.49
6132;BME280;3097;42.692;23.278;2023-01-28T02:02:44;94434.16;;;2.32;89.43
6132;BME280;3097;42.692;23.278;2023-01-28T02:05:13;94403.06;;;1.94;89.33
6132;BME280;3097;42.692;23.278;2023-01-28T02:07:39;94426.88;;;2.08;89.16
6132;BME280;3097;42.692;23.278;2023-01-28T02:10:06;94407.53;;;1.92;89.02
6132;BME280;3097;42.692;23.278;2023-01-28T02:12:39;94444.78;;;2.21;89.20
6132;BME280;3097;42.692;23.278;2023-01-28T02:15:09;94447.16;;;2.23;89.40
6132;BME280;3097;42.692;23.278;2023-01-28T02:17:36;94453.50;;;2.33;89.29
6132;BME280;3097;42.692;23.278;2023-01-28T02:20:07;94449.47;;;2.39;88.96
6132;BME280;3097;42.692;23.278;2023-01-28T02:30:54;94451.63;;;2.21;88.52
6132;BME280;3097;42.692;23.278;2023-01-28T02:33:29;94453.16;;;2.15;89.09
6132;BME280;3097;42.692;23.278;2023-01-28T02:36:05;94448.47;;;2.19;89.04
6132;BME280;3097;42.692;23.278;2023-01-28T02:38:40;94453.31;;;2.14;88.72
6132;BME280;3097;42.692;23.278;2023-01-28T02:41:12;94425.22;;;2.01;88.80
6132;BME280;3097;42.692;23.278;2023-01-28T02:43:42;94447.56;;;2.05;88.58
6132;BME280;3097;42.692;23.278;2023-01-28T02:49:26;94454.56;;;2.03;89.11
6132;BME280;3097;42.692;23.278;2023-01-28T02:57:41;94451.50;;;2.08;89.23
6132;BME280;3097;42.692;23.278;2023-01-28T03:03:10;94449.97;;;1.92;89.83
6132;BME280;3097;42.692;23.278;2023-01-28T03:05:42;94455.81;;;1.92;88.23
6132;BME280;3097;42.692;23.278;2023-01-28T03:08:40;94451.97;;;1.82;89.81
6132;BME280;3097;42.692;23.278;2023-01-28T03:11:26;94451.81;;;1.83;90.24
6132;BME280;3097;42.692;23.278;2023-01-28T03:14:12;94436.16;;;1.80;90.14
6132;BME280;3097;42.692;23.278;2023-01-28T03:16:59;94455.56;;;2.02;89.65
6132;BME280;3097;42.692;23.278;2023-01-28T03:19:44;94450.03;;;1.99;89.50
6132;BME280;3097;42.692;23.278;2023-01-28T03:22:31;94468.06;;;2.04;89.33
6132;BME280;3097;42.692;23.278;2023-01-28T03:25:19;94460.81;;;2.01;89.68
6132;BME280;3097;42.692;23.278;2023-01-28T03:28:07;94258.75;;;0.61;88.75
6132;BME280;3097;42.692;23.278;2023-01-28T03:30:59;94470.00;;;2.02;89.07
6132;BME280;3097;42.692;23.278;2023-01-28T03:33:44;94465.34;;;2.05;89.12
6132;BME280;3097;42.692;23.278;2023-01-28T03:36:29;94461.44;;;2.03;89.14
6132;BME280;3097;42.692;23.278;2023-01-28T03:39:18;94442.88;;;1.87;89.17
6132;BME280;3097;42.692;23.278;2023-01-28T03:42:15;94467.38;;;2.10;89.37
6132;BME280;3097;42.692;23.278;2023-01-28T03:44:42;94446.75;;;2.05;88.82
6132;BME280;3097;42.692;23.278;2023-01-28T03:47:16;94357.72;;;1.41;88.69
6132;BME280;3097;42.692;23.278;2023-01-28T03:49:44;94474.69;;;2.19;88.92
6132;BME280;3097;42.692;23.278;2023-01-28T03:52:11;94478.19;;;2.18;88.81
6132;BME280;3097;42.692;23.278;2023-01-28T03:54:37;94476.81;;;2.16;88.48
6132;BME280;3097;42.692;23.278;2023-01-28T03:57:03;94481.19;;;2.22;88.83
6132;BME280;3097;42.692;23.278;2023-01-28T03:59:31;94466.88;;;2.21;88.50
6132;BME280;3097;42.692;23.278;2023-01-28T04:01:57;94461.81;;;2.21;88.27
6132;BME280;3097;42.692;23.278;2023-01-28T04:04:22;94478.59;;;2.37;88.05
6132;BME280;3097;42.692;23.278;2023-01-28T04:06:52;94444.66;;;2.08;88.33
6132;BME280;3097;42.692;23.278;2023-01-28T04:09:21;94443.69;;;2.09;88.30
6132;BME280;3097;42.692;23.278;2023-01-28T04:11:47;94477.91;;;2.28;87.96
6132;BME280;3097;42.692;23.278;2023-01-28T04:14:12;94493.34;;;2.26;88.17
6132;BME280;3097;42.692;23.278;2023-01-28T04:16:40;94462.38;;;2.02;88.18
6132;BME280;3097;42.692;23.278;2023-01-28T04:19:06;94491.97;;;2.24;87.78
6132;BME280;3097;42.692;23.278;2023-01-28T04:21:31;94500.19;;;2.26;87.71
6132;BME280;3097;42.692;23.278;2023-01-28T04:23:57;94495.09;;;2.26;88.07
6132;BME280;3097;42.692;23.278;2023-01-28T04:26:22;94491.44;;;2.14;87.93
6132;BME280;3097;42.692;23.278;2023-01-28T04:28:48;94498.97;;;2.22;88.09
6132;BME280;3097;42.692;23.278;2023-01-28T04:31:13;94505.63;;;2.23;87.63
6132;BME280;3097;42.692;23.278;2023-01-28T04:33:38;94505.97;;;2.20;87.34
6132;BME280;3097;42.692;23.278;2023-01-28T04:36:04;94481.78;;;1.88;87.72
6132;BME280;3097;42.692;23.278;2023-01-28T04:38:29;94514.44;;;2.06;88.44
6132;BME280;3097;42.692;23.278;2023-01-28T04:40:55;94512.16;;;1.96;88.94
6132;BME280;3097;42.692;23.278;2023-01-28T04:43:20;94518.31;;;2.02;89.29
6132;BME280;3097;42.692;23.278;2023-01-28T04:45:46;94517.84;;;1.98;89.22
6132;BME280;3097;42.692;23.278;2023-01-28T04:48:12;94523.19;;;1.88;88.98
6132;BME280;3097;42.692;23.278;2023-01-28T04:50:38;94483.28;;;1.53;89.30
6132;BME280;3097;42.692;23.278;2023-01-28T04:53:04;94524.69;;;1.83;90.11
6132;BME280;3097;42.692;23.278;2023-01-28T04:55:29;94520.41;;;1.83;90.46
6132;BME280;3097;42.692;23.278;2023-01-28T04:57:55;94526.81;;;1.94;90.36
6132;BME280;3097;42.692;23.278;2023-01-28T05:00:20;94509.53;;;1.75;90.07
6132;BME280;3097;42.692;23.278;2023-01-28T05:02:46;94511.03;;;1.69;89.82
6132;BME280;3097;42.692;23.278;2023-01-28T05:05:11;94532.41;;;1.75;89.46
6132;BME280;3097;42.692;23.278;2023-01-28T05:07:37;94534.16;;;1.74;89.85
6132;BME280;3097;42.692;23.278;2023-01-28T05:10:03;94538.03;;;1.70;89.93
6132;BME280;3097;42.692;23.278;2023-01-28T05:12:29;94541.34;;;1.85;89.55
6132;BME280;3097;42.692;23.278;2023-01-28T05:14:57;94540.03;;;1.75;89.98
6132;BME280;3097;42.692;23.278;2023-01-28T05:17:25;94534.78;;;1.76;90.09
6132;BME280;3097;42.692;23.278;2023-01-28T05:19:50;94520.66;;;1.74;89.73
6132;BME280;3097;42.692;23.278;2023-01-28T05:22:15;94507.63;;;1.62;89.49
6132;BME280;3097;42.692;23.278;2023-01-28T05:24:41;94549.16;;;1.84;89.49
6132;BME280;3097;42.692;23.278;2023-01-28T05:27:07;94552.56;;;1.91;89.85
6132;BME280;3097;42.692;23.278;2023-01-28T05:29:32;94530.22;;;1.86;89.15
6132;BME280;3097;42.692;23.278;2023-01-28T05:31:57;94496.84;;;1.60;88.51
6132;BME280;3097;42.692;23.278;2023-01-28T05:34:23;94545.19;;;1.96;88.31
6132;BME280;3097;42.692;23.278;2023-01-28T05:36:48;94557.63;;;2.06;88.00
6132;BME280;3097;42.692;23.278;2023-01-28T05:39:14;94538.03;;;1.85;87.58
6132;BME280;3097;42.692;23.278;2023-01-28T05:41:39;94565.63;;;2.03;87.78
6132;BME280;3097;42.692;23.278;2023-01-28T05:44:05;94548.91;;;1.93;87.88
6132;BME280;3097;42.692;23.278;2023-01-28T05:46:30;94572.34;;;1.95;87.18
6132;BME280;3097;42.692;23.278;2023-01-28T05:48:55;94559.75;;;1.87;87.67
6132;BME280;3097;42.692;23.278;2023-01-28T05:51:21;94570.88;;;1.86;87.25
6132;BME280;3097;42.692;23.278;2023-01-28T05:53:46;94569.47;;;1.84;87.44
6132;BME280;3097;42.692;23.278;2023-01-28T05:56:12;94570.25;;;1.70;87.96
6132;BME280;3097;42.692;23.278;2023-01-28T05:58:37;94562.31;;;1.73;88.84
6132;BME280;3097;42.692;23.278;2023-01-28T06:01:03;94573.34;;;1.80;88.65
6132;BME280;3097;42.692;23.278;2023-01-28T06:03:28;94574.41;;;1.85;88.64
6132;BME280;3097;42.692;23.278;2023-01-28T06:05:54;94569.06;;;1.80;87.61
6132;BME280;3097;42.692;23.278;2023-01-28T06:08:19;94577.91;;;1.84;88.23
6132;BME280;3097;42.692;23.278;2023-01-28T06:10:45;94579.47;;;1.85;87.90
6132;BME280;3097;42.692;23.278;2023-01-28T06:13:10;94598.69;;;1.88;86.92
6132;BME280;3097;42.692;23.278;2023-01-28T06:15:36;94597.75;;;1.81;87.61
6132;BME280;3097;42.692;23.278;2023-01-28T06:18:01;94571.75;;;1.64;88.54
6132;BME280;3097;42.692;23.278;2023-01-28T06:20:27;94602.84;;;1.81;87.77
6132;BME280;3097;42.692;23.278;2023-01-28T06:22:52;94602.59;;;1.76;87.69
6132;BME280;3097;42.692;23.278;2023-01-28T06:25:18;94612.41;;;1.79;88.16
6132;BME280;3097;42.692;23.278;2023-01-28T06:27:44;94605.28;;;1.74;88.18
6132;BME280;3097;42.692;23.278;2023-01-28T06:30:11;94618.28;;;1.79;87.95
6132;BME280;3097;42.692;23.278;2023-01-28T06:32:36;94618.09;;;1.81;87.47
6132;BME280;3097;42.692;23.278;2023-01-28T06:35:02;94588.75;;;1.64;87.98
6132;BME280;3097;42.692;23.278;2023-01-28T06:37:28;94626.78;;;1.86;88.22
6132;BME280;3097;42.692;23.278;2023-01-28T06:39:53;94626.34;;;1.83;87.90
6132;BME280;3097;42.692;23.278;2023-01-28T06:42:18;94633.78;;;1.84;87.56
6132;BME280;3097;42.692;23.278;2023-01-28T06:44:44;94632.44;;;1.74;87.95
6132;BME280;3097;42.692;23.278;2023-01-28T06:47:09;94641.41;;;1.84;87.97
6132;BME280;3097;42.692;23.278;2023-01-28T06:49:36;94640.78;;;1.82;87.94
6132;BME280;3097;42.692;23.278;2023-01-28T06:52:02;94650.88;;;1.90;87.96
6132;BME280;3097;42.692;23.278;2023-01-28T06:54:29;94652.72;;;1.82;87.92
6132;BME280;3097;42.692;23.278;2023-01-28T06:56:54;94648.50;;;1.74;87.90
6132;BME280;3097;42.692;23.278;2023-01-28T06:59:19;94660.22;;;1.75;88.21
6132;BME280;3097;42.692;23.278;2023-01-28T07:01:45;94658.56;;;1.68;87.64
6132;BME280;3097;42.692;23.278;2023-01-28T07:04:10;94661.53;;;1.57;87.67
6132;BME280;3097;42.692;23.278;2023-01-28T07:06:36;94664.56;;;1.52;88.67
6132;BME280;3097;42.692;23.278;2023-01-28T07:09:01;94664.72;;;1.50;89.20
6132;BME280;3097;42.692;23.278;2023-01-28T07:11:27;94668.69;;;1.53;89.76
6132;BME280;3097;42.692;23.278;2023-01-28T07:13:52;94644.28;;;1.44;89.24
6132;BME280;3097;42.692;23.278;2023-01-28T07:16:18;94673.13;;;1.51;88.16
6132;BME280;3097;42.692;23.278;2023-01-28T07:18:43;94678.88;;;1.45;88.83
6132;BME280;3097;42.692;23.278;2023-01-28T07:21:08;94671.00;;;1.40;89.80
6132;BME280;3097;42.692;23.278;2023-01-28T07:23:34;94660.63;;;1.27;89.56
6132;BME280;3097;42.692;23.278;2023-01-28T07:26:03;94692.84;;;1.49;90.15
6132;BME280;3097;42.692;23.278;2023-01-28T07:28:29;94693.00;;;1.47;89.55
6132;BME280;3097;42.692;23.278;2023-01-28T07:30:54;94689.06;;;1.45;88.98
6132;BME280;3097;42.692;23.278;2023-01-28T07:33:20;94698.88;;;1.48;89.25
6132;BME280;3097;42.692;23.278;2023-01-28T07:35:46;94695.03;;;1.52;89.07
6132;BME280;3097;42.692;23.278;2023-01-28T07:38:12;94660.63;;;1.27;89.02
6132;BME280;3097;42.692;23.278;2023-01-28T07:40:38;94703.53;;;1.59;88.90
6132;BME280;3097;42.692;23.278;2023-01-28T07:43:03;94688.03;;;1.54;89.21
6132;BME280;3097;42.692;23.278;2023-01-28T07:45:32;94698.13;;;1.62;88.30
6132;BME280;3097;42.692;23.278;2023-01-28T07:47:59;94708.28;;;1.62;88.17
6132;BME280;3097;42.692;23.278;2023-01-28T07:50:27;94710.16;;;1.68;88.68
6132;BME280;3097;42.692;23.278;2023-01-28T07:52:54;94721.28;;;1.67;88.09
6132;BME280;3097;42.692;23.278;2023-01-28T07:55:20;94720.59;;;1.73;88.87
6132;BME280;3097;42.692;23.278;2023-01-28T07:57:56;94714.84;;;1.79;88.42
6132;BME280;3097;42.692;23.278;2023-01-28T08:00:23;94720.66;;;1.88;88.76
6132;BME280;3097;42.692;23.278;2023-01-28T08:02:49;94717.50;;;2.01;88.32
6132;BME280;3097;42.692;23.278;2023-01-28T08:05:19;94720.31;;;2.06;86.65
6132;BME280;3097;42.692;23.278;2023-01-28T08:07:46;94722.44;;;2.02;86.92
6132;BME280;3097;42.692;23.278;2023-01-28T08:10:13;94726.53;;;2.03;87.77
6132;BME280;3097;42.692;23.278;2023-01-28T08:12:39;94729.38;;;2.23;92.56
6132;BME280;3097;42.692;23.278;2023-01-28T08:15:05;94715.91;;;2.37;97.75
6132;BME280;3097;42.692;23.278;2023-01-28T08:17:31;94708.00;;;2.61;97.86
6132;BME280;3097;42.692;23.278;2023-01-28T08:19:57;94733.28;;;2.78;90.09
6132;BME280;3097;42.692;23.278;2023-01-28T08:22:25;94733.16;;;2.71;86.97
6132;BME280;3097;42.692;23.278;2023-01-28T08:24:51;94738.09;;;2.72;84.66
6132;BME280;3097;42.692;23.278;2023-01-28T08:27:17;94738.88;;;2.58;85.11
6132;BME280;3097;42.692;23.278;2023-01-28T08:29:43;94738.00;;;2.51;86.57
6132;BME280;3097;42.692;23.278;2023-01-28T08:32:09;94742.31;;;2.65;86.24
6132;BME280;3097;42.692;23.278;2023-01-28T08:34:35;94738.47;;;2.69;85.07
6132;BME280;3097;42.692;23.278;2023-01-28T08:37:00;94744.50;;;2.68;84.22
6132;BME280;3097;42.692;23.278;2023-01-28T08:39:26;94714.47;;;2.49;84.57
6132;BME280;3097;42.692;23.278;2023-01-28T08:41:51;94721.59;;;2.54;84.09
6132;BME280;3097;42.692;23.278;2023-01-28T08:44:18;94741.25;;;2.60;84.53
6132;BME280;3097;42.692;23.278;2023-01-28T08:46:43;94743.88;;;2.66;83.19
6132;BME280;3097;42.692;23.278;2023-01-28T08:49:09;94737.38;;;2.34;83.98
6132;BME280;3097;42.692;23.278;2023-01-28T08:51:35;94757.63;;;2.28;84.96
6132;BME280;3097;42.692;23.278;2023-01-28T08:54:01;94745.88;;;2.27;85.45
6132;BME280;3097;42.692;23.278;2023-01-28T08:56:26;94749.91;;;2.36;86.58
6132;BME280;3097;42.692;23.278;2023-01-28T08:58:52;94742.38;;;2.57;86.20
6132;BME280;3097;42.692;23.278;2023-01-28T09:01:18;94752.06;;;2.77;84.88
6132;BME280;3097;42.692;23.278;2023-01-28T09:03:44;94735.72;;;2.56;83.14
6132;BME280;3097;42.692;23.278;2023-01-28T09:06:09;94698.78;;;2.16;84.18
6132;BME280;3097;42.692;23.278;2023-01-28T09:08:35;94750.28;;;2.48;85.65
6132;BME280;3097;42.692;23.278;2023-01-28T09:11:01;94749.44;;;2.55;85.08
6132;BME280;3097;42.692;23.278;2023-01-28T09:13:27;94756.94;;;2.63;84.12
6132;BME280;3097;42.692;23.278;2023-01-28T09:15:52;94761.53;;;2.53;84.78
6132;BME280;3097;42.692;23.278;2023-01-28T09:18:18;94752.38;;;2.44;84.87
6132;BME280;3097;42.692;23.278;2023-01-28T09:20:44;94756.25;;;2.40;85.30
6132;BME280;3097;42.692;23.278;2023-01-28T09:23:10;94758.31;;;2.22;85.67
6132;BME280;3097;42.692;23.278;2023-01-28T09:25:36;94756.50;;;2.30;87.22
6132;BME280;3097;42.692;23.278;2023-01-28T09:28:01;94753.97;;;2.45;86.68
6132;BME280;3097;42.692;23.278;2023-01-28T09:30:28;94732.97;;;2.28;87.02
6132;BME280;3097;42.692;23.278;2023-01-28T09:32:54;94744.34;;;2.55;86.51
6132;BME280;3097;42.692;23.278;2023-01-28T09:35:21;94640.38;;;1.93;86.22
6132;BME280;3097;42.692;23.278;2023-01-28T09:37:49;94754.31;;;2.71;85.73
6132;BME280;3097;42.692;23.278;2023-01-28T09:40:26;94729.06;;;2.55;85.03
6132;BME280;3097;42.692;23.278;2023-01-28T09:45:40;94739.75;;;2.65;85.55
6132;BME280;3097;42.692;23.278;2023-01-28T09:48:12;94738.19;;;2.64;85.44
6132;BME280;3097;42.692;23.278;2023-01-28T09:50:42;94746.44;;;2.66;86.32
6132;BME280;3097;42.692;23.278;2023-01-28T09:53:15;94751.78;;;2.71;85.26
6132;BME280;3097;42.692;23.278;2023-01-28T09:55:45;94753.63;;;2.78;85.32
6132;BME280;3097;42.692;23.278;2023-01-28T09:58:14;94752.56;;;2.72;84.90
6132;BME280;3097;42.692;23.278;2023-01-28T10:04:04;94750.81;;;2.72;85.88
6132;BME280;3097;42.692;23.278;2023-01-28T10:06:58;94749.84;;;2.59;86.42
6132;BME280;3097;42.692;23.278;2023-01-28T10:09:40;94755.31;;;2.70;85.99
6132;BME280;3097;42.692;23.278;2023-01-28T10:13:00;94751.59;;;2.73;85.62
6132;BME280;3097;42.692;23.278;2023-01-28T10:17:47;94746.75;;;2.63;85.55
6132;BME280;3097;42.692;23.278;2023-01-28T10:20:25;94724.25;;;2.46;86.66
6132;BME280;3097;42.692;23.278;2023-01-28T10:23:21;94743.53;;;2.55;84.92
6132;BME280;3097;42.692;23.278;2023-01-28T10:25:49;94739.19;;;2.26;86.03
6132;BME280;3097;42.692;23.278;2023-01-28T10:28:26;94753.78;;;2.32;86.39
6132;BME280;3097;42.692;23.278;2023-01-28T10:30:52;94759.44;;;2.19;87.21
6132;BME280;3097;42.692;23.278;2023-01-28T10:35:54;94739.84;;;1.90;88.49
6132;BME280;3097;42.692;23.278;2023-01-28T10:38:22;94748.66;;;2.03;90.12
6132;BME280;3097;42.692;23.278;2023-01-28T10:40:49;94744.66;;;2.23;89.07
6132;BME280;3097;42.692;23.278;2023-01-28T10:43:25;94734.00;;;2.19;87.75
6132;BME280;3097;42.692;23.278;2023-01-28T10:48:29;94634.63;;;1.62;88.58
6132;BME280;3097;42.692;23.278;2023-01-28T10:50:59;94742.13;;;2.38;86.03
6132;BME280;3097;42.692;23.278;2023-01-28T10:53:38;94744.22;;;2.34;88.18
6132;BME280;3097;42.692;23.278;2023-01-28T10:56:08;94746.50;;;2.44;87.09
6132;BME280;3097;42.692;23.278;2023-01-28T10:58:45;94737.38;;;2.49;86.28
6132;BME280;3097;42.692;23.278;2023-01-28T11:01:11;94739.25;;;2.55;86.54
6132;BME280;3097;42.692;23.278;2023-01-28T11:03:37;94734.50;;;2.52;87.56
6132;BME280;3097;42.692;23.278;2023-01-28T11:06:03;94730.44;;;2.72;87.86
6132;BME280;3097;42.692;23.278;2023-01-28T11:08:29;94743.69;;;2.97;87.18
6132;BME280;3097;42.692;23.278;2023-01-28T11:10:56;94681.31;;;2.57;86.19
6132;BME280;3097;42.692;23.278;2023-01-28T11:13:27;94741.78;;;2.99;83.37
6132;BME280;3097;42.692;23.278;2023-01-28T11:16:00;94737.28;;;2.87;84.86
6132;BME280;3097;42.692;23.278;2023-01-28T11:18:32;94723.53;;;2.81;84.03
6132;BME280;3097;42.692;23.278;2023-01-28T11:21:02;94726.22;;;2.80;83.97
6132;BME280;3097;42.692;23.278;2023-01-28T11:23:31;94713.97;;;2.68;86.51
6132;BME280;3097;42.692;23.278;2023-01-28T11:26:20;94732.00;;;3.03;93.27
6132;BME280;3097;42.692;23.278;2023-01-28T11:28:47;94730.50;;;3.08;95.51
6132;BME280;3097;42.692;23.278;2023-01-28T11:31:14;94734.97;;;3.21;90.24
6132;BME280;3097;42.692;23.278;2023-01-28T11:36:14;94734.56;;;2.88;85.32
6132;BME280;3097;42.692;23.278;2023-01-28T11:38:49;94741.16;;;2.83;85.46
6132;BME280;3097;42.692;23.278;2023-01-28T11:41:15;94726.06;;;2.81;85.24
6132;BME280;3097;42.692;23.278;2023-01-28T11:43:42;94720.72;;;2.91;85.71
6132;BME280;3097;42.692;23.278;2023-01-28T12:02:47;94727.28;;;3.36;84.94
6132;BME280;3097;42.692;23.278;2023-01-28T12:12:46;94741.16;;;3.33;81.61
6132;BME280;3097;42.692;23.278;2023-01-28T12:21:04;94734.00;;;3.22;83.51
6132;BME280;3097;42.692;23.278;2023-01-28T12:23:54;94732.88;;;3.10;83.50
6132;BME280;3097;42.692;23.278;2023-01-28T12:37:13;94735.63;;;2.79;84.83
6132;BME280;3097;42.692;23.278;2023-01-28T12:39:52;94689.34;;;2.54;85.20
6132;BME280;3097;42.692;23.278;2023-01-28T12:45:03;94716.59;;;2.90;86.21
6132;BME280;3097;42.692;23.278;2023-01-28T12:47:38;94706.13;;;2.99;85.56
6132;BME280;3097;42.692;23.278;2023-01-28T12:50:13;94742.00;;;3.19;84.08
6132;BME280;3097;42.692;23.278;2023-01-28T12:52:51;94740.75;;;3.30;85.39
6132;BME280;3097;42.692;23.278;2023-01-28T12:56:22;94748.09;;;3.39;85.14
6132;BME280;3097;42.692;23.278;2023-01-28T12:58:38;94748.13;;;3.61;84.65
6132;BME280;3097;42.692;23.278;2023-01-28T13:01:08;94748.25;;;3.53;82.81
6132;BME280;3097;42.692;23.278;2023-01-28T13:03:41;94760.97;;;3.53;81.35
6132;BME280;3097;42.692;23.278;2023-01-28T13:06:12;94759.78;;;3.34;82.35
6132;BME280;3097;42.692;23.278;2023-01-28T13:08:39;94765.16;;;3.24;82.70
6132;BME280;3097;42.692;23.278;2023-01-28T13:11:11;94762.63;;;3.09;82.77
6132;BME280;3097;42.692;23.278;2023-01-28T13:13:40;94770.19;;;3.18;83.60
6132;BME280;3097;42.692;23.278;2023-01-28T13:16:10;94766.25;;;3.15;83.62
6132;BME280;3097;42.692;23.278;2023-01-28T13:21:16;94725.31;;;3.02;85.53
6132;BME280;3097;42.692;23.278;2023-01-28T13:23:46;94775.13;;;3.40;84.17
6132;BME280;3097;42.692;23.278;2023-01-28T13:28:45;94781.16;;;3.54;83.47
6132;BME280;3097;42.692;23.278;2023-01-28T13:31:14;94777.06;;;3.53;82.76
6132;BME280;3097;42.692;23.278;2023-01-28T13:34:08;94781.44;;;3.59;82.58
6132;BME280;3097;42.692;23.278;2023-01-28T13:39:13;94790.38;;;3.55;81.93
6132;BME280;3097;42.692;23.278;2023-01-28T13:41:41;94803.69;;;3.50;80.72
6132;BME280;3097;42.692;23.278;2023-01-28T13:44:29;94793.81;;;3.11;81.68
6132;BME280;3097;42.692;23.278;2023-01-28T13:47:12;94794.78;;;3.10;83.97
6132;BME280;3097;42.692;23.278;2023-01-28T13:49:41;94775.72;;;3.06;84.73
6132;BME280;3097;42.692;23.278;2023-01-28T13:54:39;94799.16;;;3.02;82.40
6132;BME280;3097;42.692;23.278;2023-01-28T14:00:00;94804.53;;;2.92;85.51
6132;BME280;3097;42.692;23.278;2023-01-28T14:08:46;94807.16;;;2.99;83.10
6132;BME280;3097;42.692;23.278;2023-01-28T14:16:49;94824.00;;;2.70;83.60
6132;BME280;3097;42.692;23.278;2023-01-28T14:19:27;94830.41;;;2.66;84.91
6132;BME280;3097;42.692;23.278;2023-01-28T14:21:54;94835.75;;;2.71;85.11
6132;BME280;3097;42.692;23.278;2023-01-28T14:24:20;94837.00;;;2.76;85.08
6132;BME280;3097;42.692;23.278;2023-01-28T14:27:02;94835.34;;;2.83;84.52
6132;BME280;3097;42.692;23.278;2023-01-28T14:29:45;94841.72;;;2.79;84.50
6132;BME280;3097;42.692;23.278;2023-01-28T14:32:15;94842.97;;;2.83;84.44
6132;BME280;3097;42.692;23.278;2023-01-28T14:34:43;94838.84;;;2.82;84.71
6132;BME280;3097;42.692;23.278;2023-01-28T14:37:17;94839.56;;;2.90;84.24
6132;BME280;3097;42.692;23.278;2023-01-28T14:39:45;94846.72;;;2.87;85.43
6132;BME280;3097;42.692;23.278;2023-01-28T14:42:26;94846.41;;;2.90;85.28
6132;BME280;3097;42.692;23.278;2023-01-28T14:58:26;94856.81;;;2.65;84.33
6132;BME280;3097;42.692;23.278;2023-01-28T15:00:56;94869.97;;;2.54;83.87
6132;BME280;3097;42.692;23.278;2023-01-28T15:03:24;94868.44;;;2.45;83.87
6132;BME280;3097;42.692;23.278;2023-01-28T15:06:13;94863.88;;;2.18;84.27
6132;BME280;3097;42.692;23.278;2023-01-28T15:08:39;94864.00;;;2.02;84.58
6132;BME280;3097;42.692;23.278;2023-01-28T15:11:11;94857.69;;;1.89;85.88
6132;BME280;3097;42.692;23.278;2023-01-28T15:13:43;94867.50;;;2.01;86.94
6132;BME280;3097;42.692;23.278;2023-01-28T15:16:19;94852.91;;;1.94;86.66
6132;BME280;3097;42.692;23.278;2023-01-28T15:18:46;94841.94;;;1.94;86.34
6132;BME280;3097;42.692;23.278;2023-01-28T15:21:13;94768.59;;;1.37;85.35
6132;BME280;3097;42.692;23.278;2023-01-28T15:23:43;94849.75;;;1.92;86.44
6132;BME280;3097;42.692;23.278;2023-01-28T15:26:18;94875.06;;;2.09;86.26
6132;BME280;3097;42.692;23.278;2023-01-28T15:28:45;94881.72;;;2.10;86.91
6132;BME280;3097;42.692;23.278;2023-01-28T15:31:22;94875.19;;;2.15;86.83
6132;BME280;3097;42.692;23.278;2023-01-28T15:34:00;94879.31;;;2.16;86.88
6132;BME280;3097;42.692;23.278;2023-01-28T15:36:26;94882.34;;;2.12;86.71